Time;durP1;ratioP1;P1;durP2;ratioP2;P2;SDS_P1;SDS_P2;PMS_P1;PMS_P2;Temp;Humidity;BMP_temperature;BMP_pressure;BME280_temperature;BME280_humidity;BME280_pressure;Samples;Min_cycle;Max_cycle;Signal;HPM_P1;HPM_P2
2021/01/22 00:02:22;;;;;;;;;;;;;;;20.04;32.92;101349.41;5072617;28;1036;-59
2021/01/22 00:04:47;;;;;;;;;;;;;;;19.64;33.76;101351.16;5079125;28;772;-56
2021/01/22 00:07:13;;;;;;;;;;;;;;;19.27;34.47;101346.84;5074729;28;1979;-59
2021/01/22 00:09:39;;;;;;;;;;;;;;;20.31;32.63;101350.91;5059269;28;760;-59
2021/01/22 00:12:04;;;;;;;;;;;;;;;20.35;32.13;101340.94;5058773;28;768;-59
2021/01/22 00:14:30;;;;;;;;;;;;;;;19.87;33.25;101348.94;5059222;28;760;-56
2021/01/22 00:16:55;;;;;;;;;;;;;;;19.72;33.62;101349.78;5059047;28;760;-58
2021/01/22 00:19:20;;;;;;;;;;;;;;;19.24;34.29;101341.91;5058717;28;871;-58
2021/01/22 00:21:46;;;;;;;;;;;;;;;20.28;32.69;101337.69;5058797;28;1014;-59
2021/01/22 00:24:11;;;;;;;;;;;;;;;20.88;31.65;101339.50;5059213;28;811;-59
2021/01/22 00:26:37;;;;;;;;;;;;;;;21.29;30.74;101337.19;5058724;28;1980;-59
2021/01/22 00:29:02;;;;;;;;;;;;;;;20.64;31.74;101340.22;5058738;28;815;-58
2021/01/22 00:31:28;;;;;;;;;;;;;;;20.44;32.37;101347.53;5058937;28;787;-59
2021/01/22 00:33:53;;;;;;;;;;;;;;;19.88;33.17;101345.88;5057584;28;748;-56
2021/01/22 00:36:18;;;;;;;;;;;;;;;19.27;34.23;101344.09;5041074;28;761;-54
2021/01/22 00:38:44;;;;;;;;;;;;;;;20.03;32.98;101347.75;5058378;28;955;-56
2021/01/22 00:41:09;;;;;;;;;;;;;;;20.67;31.96;101340.47;5058684;28;776;-52
2021/01/22 00:43:35;;;;;;;;;;;;;;;20.13;32.89;101333.91;5058389;28;764;-56
2021/01/22 00:46:00;;;;;;;;;;;;;;;20.04;33.05;101327.31;5058394;28;808;-58
2021/01/22 00:48:26;;;;;;;;;;;;;;;19.46;34.09;101333.28;5058476;28;1959;-55
2021/01/22 00:50:51;;;;;;;;;;;;;;;19.74;33.83;101340.13;5058498;28;787;-60
2021/01/22 00:53:17;;;;;;;;;;;;;;;20.56;32.26;101332.53;5058275;28;974;-57
2021/01/22 00:55:42;;;;;;;;;;;;;;;20.21;32.73;101328.88;5058527;28;827;-55
2021/01/22 00:58:26;;;;;;;;;;;;;;;20.13;32.71;101324.78;5057971;28;610;-56
2021/01/22 01:01:05;;;;;;;;;;;;;;;19.45;33.89;101332.47;5058195;28;1042;-59
2021/01/22 01:03:32;;;;;;;;;;;;;;;20.04;33.12;101321.78;5040749;28;1272;-62
2021/01/22 01:05:58;;;;;;;;;;;;;;;20.65;31.94;101319.75;5039947;28;1253;-61
2021/01/22 01:08:24;;;;;;;;;;;;;;;20.20;32.79;101310.66;5058115;28;1972;-61
2021/01/22 01:11:06;;;;;;;;;;;;;;;20.11;32.95;101304.94;5040315;28;1150;-61
2021/01/22 01:13:43;;;;;;;;;;;;;;;19.46;33.89;101311.22;5040360;28;1404;-61
2021/01/22 01:16:37;;;;;;;;;;;;;;;20.14;32.69;101309.88;5049249;28;1170;-59
2021/01/22 01:19:03;;;;;;;;;;;;;;;20.67;31.94;101300.94;5075268;28;1368;-55
2021/01/22 01:21:28;;;;;;;;;;;;;;;20.32;32.63;101300.91;5059266;28;916;-58
2021/01/22 01:23:57;;;;;;;;;;;;;;;20.13;32.88;101298.00;5077682;28;951;-63
2021/01/22 01:26:23;;;;;;;;;;;;;;;19.41;34.31;101297.47;5077505;28;740;-53
2021/01/22 01:28:57;;;;;;;;;;;;;;;19.68;33.87;101297.06;5077606;28;1918;-64
2021/01/22 01:31:38;;;;;;;;;;;;;;;20.67;32.01;101290.75;5063071;28;1543;-64
2021/01/22 01:34:03;;;;;;;;;;;;;;;20.36;32.46;101295.66;5077207;28;776;-60
2021/01/22 01:36:29;;;;;;;;;;;;;;;20.06;33.08;101286.44;5059794;28;905;-63
2021/01/22 01:38:54;;;;;;;;;;;;;;;19.63;33.60;101289.66;5059069;28;958;-62
2021/01/22 01:41:23;;;;;;;;;;;;;;;19.36;34.35;101289.19;5056961;28;815;-63
2021/01/22 01:43:48;;;;;;;;;;;;;;;20.34;32.59;101281.28;5057183;28;855;-61
2021/01/22 01:46:14;;;;;;;;;;;;;;;20.60;32.15;101283.88;5057749;28;808;-63
2021/01/22 01:48:51;;;;;;;;;;;;;;;20.17;32.67;101282.53;5057008;28;1976;-58
2021/01/22 01:51:17;;;;;;;;;;;;;;;19.69;33.47;101293.22;5040809;28;748;-63
2021/01/22 01:53:43;;;;;;;;;;;;;;;19.40;34.09;101290.28;5039369;28;976;-64
2021/01/22 01:56:08;;;;;;;;;;;;;;;20.30;32.51;101280.22;5056913;28;816;-57
2021/01/22 01:58:34;;;;;;;;;;;;;;;20.53;32.04;101284.19;5057185;28;867;-63
2021/01/22 02:00:59;;;;;;;;;;;;;;;20.20;32.74;101269.25;5056923;28;1051;-62
2021/01/22 02:03:25;;;;;;;;;;;;;;;20.02;33.07;101271.56;5039065;28;752;-61
2021/01/22 02:05:50;;;;;;;;;;;;;;;19.31;34.25;101279.00;5039416;28;768;-61
2021/01/22 02:08:16;;;;;;;;;;;;;;;19.85;33.52;101279.38;5056673;28;1979;-62
2021/01/22 02:10:41;;;;;;;;;;;;;;;20.61;31.93;101274.47;5056580;28;811;-62
2021/01/22 02:13:07;;;;;;;;;;;;;;;20.20;32.70;101274.75;5039384;28;914;-62
2021/01/22 02:15:32;;;;;;;;;;;;;;;20.07;33.04;101271.53;5039195;28;893;-61
2021/01/22 02:17:58;;;;;;;;;;;;;;;19.61;33.63;101264.28;5047250;28;1104;-61
2021/01/22 02:20:23;;;;;;;;;;;;;;;19.29;34.27;101273.78;5058981;28;812;-61
2021/01/22 02:22:51;;;;;;;;;;;;;;;20.32;32.79;101267.78;5067216;28;1002;-63
2021/01/22 02:25:18;;;;;;;;;;;;;;;20.45;32.21;101266.28;5038961;28;800;-62
2021/01/22 02:27:43;;;;;;;;;;;;;;;20.21;32.66;101265.38;5038877;28;1980;-56
2021/01/22 02:30:09;;;;;;;;;;;;;;;19.91;33.31;101262.53;5056366;28;748;-56
2021/01/22 02:32:35;;;;;;;;;;;;;;;19.33;34.16;101268.50;5038677;28;828;-60
2021/01/22 02:35:02;;;;;;;;;;;;;;;19.82;33.61;101264.22;5039045;28;713;-61
2021/01/22 02:37:30;;;;;;;;;;;;;;;20.66;31.93;101257.84;5039060;28;1007;-62
2021/01/22 02:39:56;;;;;;;;;;;;;;;20.27;32.61;101258.69;5038378;28;820;-62
2021/01/22 02:42:21;;;;;;;;;;;;;;;20.13;32.61;101255.75;5038707;28;832;-55
2021/01/22 02:44:47;;;;;;;;;;;;;;;19.64;33.72;101257.38;5038495;28;847;-57
2021/01/22 02:47:12;;;;;;;;;;;;;;;19.48;33.98;101254.66;5056404;28;1985;-59
2021/01/22 02:49:38;;;;;;;;;;;;;;;20.40;32.32;101262.75;5038439;28;939;-57
2021/01/22 02:52:04;;;;;;;;;;;;;;;20.37;32.45;101269.69;5055970;28;1005;-60
2021/01/22 02:54:29;;;;;;;;;;;;;;;20.02;33.10;101265.22;5056280;28;799;-57
2021/01/22 02:56:54;;;;;;;;;;;;;;;19.69;33.74;101259.28;5055271;28;866;-60
2021/01/22 02:59:48;;;;;;;;;;;;;;;19.17;34.59;101258.63;5056088;28;803;-58
2021/01/22 03:02:18;;;;;;;;;;;;;;;20.40;32.65;101255.31;5055877;28;1190;-57
2021/01/22 03:04:43;;;;;;;;;;;;;;;20.33;32.67;101263.91;5021536;28;883;-60
2021/01/22 03:07:10;;;;;;;;;;;;;;;20.02;32.84;101273.50;5038079;28;1914;-61
2021/01/22 03:09:39;;;;;;;;;;;;;;;19.64;33.72;101265.66;5038166;28;918;-55
2021/01/22 03:12:05;;;;;;;;;;;;;;;19.18;34.52;101266.66;5038835;28;771;-61
2021/01/22 03:14:30;;;;;;;;;;;;;;;20.23;32.97;101263.16;5038375;28;744;-56
2021/01/22 03:16:55;;;;;;;;;;;;;;;20.59;32.09;101265.66;5037937;28;1496;-59
2021/01/22 03:19:21;;;;;;;;;;;;;;;20.29;32.43;101264.78;5076229;28;756;-55
2021/01/22 03:21:46;;;;;;;;;;;;;;;20.04;33.04;101265.78;5075897;28;954;-52
2021/01/22 03:24:12;;;;;;;;;;;;;;;19.46;34.06;101267.09;5076343;28;851;-59
2021/01/22 03:26:37;;;;;;;;;;;;;;;19.95;33.20;101255.31;5075544;28;820;-50
2021/01/22 03:29:06;;;;;;;;;;;;;;;20.60;32.02;101264.53;5057731;28;1910;-61
2021/01/22 03:31:31;;;;;;;;;;;;;;;20.14;32.95;101265.69;5075987;28;736;-61
2021/01/22 03:33:56;;;;;;;;;;;;;;;20.00;32.94;101260.78;5075460;28;768;-53
2021/01/22 03:36:22;;;;;;;;;;;;;;;19.39;34.20;101261.03;5075952;28;764;-59
2021/01/22 03:38:47;;;;;;;;;;;;;;;19.64;33.76;101265.66;5040455;28;955;-59
2021/01/22 03:41:13;;;;;;;;;;;;;;;20.57;32.07;101257.66;5055349;28;784;-59
2021/01/22 03:43:38;;;;;;;;;;;;;;;20.15;32.75;101262.66;5055866;28;827;-50
2021/01/22 03:46:04;;;;;;;;;;;;;;;19.93;33.11;101262.22;5038239;28;888;-55
2021/01/22 03:48:32;;;;;;;;;;;;;;;19.60;33.82;101256.28;5055409;28;1926;-59
2021/01/22 03:50:58;;;;;;;;;;;;;;;19.44;34.38;101272.06;5055718;28;867;-59
2021/01/22 03:53:23;;;;;;;;;;;;;;;20.44;32.29;101272.94;5055191;28;1013;-58
2021/01/22 03:55:49;;;;;;;;;;;;;;;20.22;32.58;101275.31;5055441;28;832;-54
2021/01/22 03:58:14;;;;;;;;;;;;;;;20.06;32.89;101267.09;5055756;28;836;-55
2021/01/22 04:00:39;;;;;;;;;;;;;;;19.71;33.63;101268.91;5037549;28;812;-53
2021/01/22 04:03:05;;;;;;;;;;;;;;;19.34;34.60;101264.66;5055270;28;1044;-56
2021/01/22 04:05:30;;;;;;;;;;;;;;;20.29;32.60;101270.31;5055642;28;796;-59
2021/01/22 04:07:56;;;;;;;;;;;;;;;20.26;32.50;101268.09;5057824;28;1906;-58
2021/01/22 04:10:21;;;;;;;;;;;;;;;20.09;33.17;101268.47;5058965;28;780;-57
2021/01/22 04:12:47;;;;;;;;;;;;;;;19.77;33.66;101265.03;5059219;28;752;-56
2021/01/22 04:15:12;;;;;;;;;;;;;;;19.09;34.97;101266.38;5059147;28;752;-58
2021/01/22 04:17:38;;;;;;;;;;;;;;;20.16;32.83;101266.22;5064689;28;1159;-56
2021/01/22 04:20:04;;;;;;;;;;;;;;;20.73;31.79;101277.69;5078950;28;820;-47
2021/01/22 04:22:29;;;;;;;;;;;;;;;20.08;32.82;101277.88;5072096;28;955;-47
2021/01/22 04:24:55;;;;;;;;;;;;;;;19.90;33.37;101284.88;5058686;28;799;-56
2021/01/22 04:27:20;;;;;;;;;;;;;;;19.31;34.45;101284.53;5058709;28;1905;-47
2021/01/22 04:29:47;;;;;;;;;;;;;;;19.95;33.33;101282.06;5060586;28;908;-47
2021/01/22 04:32:12;;;;;;;;;;;;;;;20.75;32.04;101281.03;5077699;28;887;-59
2021/01/22 04:34:38;;;;;;;;;;;;;;;20.28;32.73;101274.16;5079089;28;840;-62
2021/01/22 04:37:03;;;;;;;;;;;;;;;20.15;32.98;101273.69;5075617;28;1155;-58
2021/01/22 04:39:29;;;;;;;;;;;;;;;19.56;33.73;101272.59;5058469;28;816;-55
2021/01/22 04:41:54;;;;;;;;;;;;;;;19.52;34.23;101270.66;5058399;28;796;-55
2021/01/22 04:44:20;;;;;;;;;;;;;;;20.47;32.34;101263.28;5041010;28;1136;-55
2021/01/22 04:46:45;;;;;;;;;;;;;;;20.25;32.50;101260.94;5058334;28;752;-47
2021/01/22 04:49:11;;;;;;;;;;;;;;;20.00;33.25;101260.78;5058280;28;1979;-47
2021/01/22 04:51:36;;;;;;;;;;;;;;;19.61;33.90;101260.69;5058292;28;796;-49
2021/01/22 04:54:03;;;;;;;;;;;;;;;19.03;34.74;101261.97;5057802;28;967;-51
2021/01/22 04:56:28;;;;;;;;;;;;;;;20.20;33.01;101263.72;5058046;28;541;-51
2021/01/22 04:58:54;;;;;;;;;;;;;;;20.76;31.90;101262.47;5040905;28;806;-51
2021/01/22 05:01:21;;;;;;;;;;;;;;;20.20;32.77;101266.47;5073751;28;1022;-50
2021/01/22 05:03:46;;;;;;;;;;;;;;;20.04;33.11;101265.78;5078042;28;744;-57
2021/01/22 05:06:12;;;;;;;;;;;;;;;19.34;34.42;101278.44;5078265;28;823;-55
2021/01/22 05:08:55;;;;;;;;;;;;;;;19.49;33.99;101275.63;5043792;28;1971;-58
2021/01/22 05:11:53;;;;;;;;;;;;;;;20.66;31.75;101277.19;5045785;28;606;-58
2021/01/22 05:14:19;;;;;;;;;;;;;;;20.26;32.68;101265.31;5058385;28;787;-58
2021/01/22 05:17:03;;;;;;;;;;;;;;;20.33;32.53;101279.66;5057877;28;823;-51
2021/01/22 05:19:29;;;;;;;;;;;;;;;19.53;33.88;101266.78;5057207;28;808;-58
2021/01/22 05:21:54;;;;;;;;;;;;;;;19.00;34.52;101270.81;5039685;28;990;-61
2021/01/22 05:24:20;;;;;;;;;;;;;;;20.11;32.26;101267.09;5057662;28;783;-58
2021/01/22 05:26:46;;;;;;;;;;;;;;;20.44;31.65;101267.44;5057912;28;748;-58
2021/01/22 05:32:26;;;;;;;;;;;;;;;19.73;32.84;101255.69;5044759;28;967;-59
2021/01/22 05:34:52;;;;;;;;;;;;;;;19.64;33.35;101257.38;5057801;28;779;-56
2021/01/22 05:37:18;;;;;;;;;;;;;;;20.52;31.73;101250.22;5039565;28;967;-48
2021/01/22 05:39:43;;;;;;;;;;;;;;;20.19;32.17;101257.38;5057500;28;760;-47
2021/01/22 05:42:10;;;;;;;;;;;;;;;20.15;32.39;101251.59;5057582;28;816;-65
2021/01/22 05:44:35;;;;;;;;;;;;;;;19.65;33.45;101259.03;5057399;28;828;-58
2021/01/22 05:47:01;;;;;;;;;;;;;;;19.58;33.33;101244.72;5057146;28;1918;-64
2021/01/22 05:49:30;;;;;;;;;;;;;;;20.49;31.93;101256.31;5057374;28;760;-63
2021/01/22 05:51:55;;;;;;;;;;;;;;;20.22;32.40;101251.28;5056917;28;962;-63
2021/01/22 05:54:34;;;;;;;;;;;;;;;20.04;32.77;101261.06;5057106;28;780;-48
2021/01/22 05:56:59;;;;;;;;;;;;;;;19.49;33.42;101250.81;5039797;28;862;-55
2021/01/22 05:59:25;;;;;;;;;;;;;;;19.99;32.86;101250.88;5056937;28;792;-60
2021/01/22 06:01:50;;;;;;;;;;;;;;;20.70;31.68;101258.13;5034966;28;1015;-54
2021/01/22 06:04:16;;;;;;;;;;;;;;;20.15;32.44;101259.06;5037266;28;752;-54
2021/01/22 06:06:42;;;;;;;;;;;;;;;20.17;32.61;101252.16;5036962;28;816;-52
2021/01/22 06:09:10;;;;;;;;;;;;;;;19.69;33.58;101256.53;5036626;28;1910;-50
2021/01/22 06:11:36;;;;;;;;;;;;;;;19.76;33.16;101254.28;5055099;28;833;-47
2021/01/22 06:14:03;;;;;;;;;;;;;;;20.57;32.05;101256.84;5056051;28;821;-63
2021/01/22 06:16:28;;;;;;;;;;;;;;;20.37;32.28;101253.13;5056377;28;816;-60
2021/01/22 06:18:54;;;;;;;;;;;;;;;20.37;32.20;101255.88;5056663;28;1135;-48
2021/01/22 06:21:20;;;;;;;;;;;;;;;19.73;33.12;101252.09;5056390;28;883;-47
2021/01/22 06:23:45;;;;;;;;;;;;;;;19.81;33.23;101257.88;5038096;28;942;-58
2021/01/22 06:26:11;;;;;;;;;;;;;;;20.63;31.97;101261.19;5037015;28;803;-60
2021/01/22 06:28:39;;;;;;;;;;;;;;;20.12;32.68;101263.22;5036533;28;1910;-46
2021/01/22 06:31:04;;;;;;;;;;;;;;;20.26;32.58;101251.50;5035730;28;875;-60
2021/01/22 06:33:30;;;;;;;;;;;;;;;19.66;33.51;101250.47;5035235;28;879;-60
2021/01/22 06:35:55;;;;;;;;;;;;;;;19.45;34.09;101255.25;5035419;28;832;-61
2021/01/22 06:38:22;;;;;;;;;;;;;;;20.46;32.05;101256.91;5034955;28;963;-61
2021/01/22 06:40:49;;;;;;;;;;;;;;;20.92;31.28;101257.66;5036392;28;994;-48
2021/01/22 06:43:14;;;;;;;;;;;;;;;21.11;30.73;101247.50;5036494;28;800;-56
2021/01/22 06:45:39;;;;;;;;;;;;;;;20.48;31.94;101257.44;5036278;28;848;-58
2021/01/22 06:48:06;;;;;;;;;;;;;;;20.38;32.10;101251.97;5036227;28;1886;-46
2021/01/22 06:50:31;;;;;;;;;;;;;;;19.49;34.05;101253.56;5036443;28;760;-45
2021/01/22 06:53:09;;;;;;;;;;;;;;;19.42;34.30;101247.53;5035952;28;1013;-47
2021/01/22 06:55:50;;;;;;;;;;;;;;;20.45;32.31;101249.72;5036265;28;831;-51
2021/01/22 06:58:28;;;;;;;;;;;;;;;20.34;32.27;101246.22;5036471;28;792;-50
2021/01/22 07:01:26;;;;;;;;;;;;;;;20.31;32.29;101241.28;5036295;28;912;-53
2021/01/22 07:03:51;;;;;;;;;;;;;;;19.59;33.67;101229.81;5056291;28;1727;-57
2021/01/22 07:06:34;;;;;;;;;;;;;;;19.62;33.77;101232.00;5056065;28;800;-58
2021/01/22 07:08:59;;;;;;;;;;;;;;;20.65;31.71;101242.38;5055609;28;2064;-57
2021/01/22 07:11:25;;;;;;;;;;;;;;;20.18;32.73;101228.94;5038322;28;856;-57
2021/01/22 07:13:51;;;;;;;;;;;;;;;20.14;32.74;101222.34;5056154;28;867;-48
2021/01/22 07:16:16;;;;;;;;;;;;;;;19.54;33.85;101225.13;5055946;28;756;-57
2021/01/22 07:18:44;;;;;;;;;;;;;;;19.77;33.62;101226.41;5070682;28;1084;-49
2021/01/22 07:21:19;;;;;;;;;;;;;;;20.70;31.50;101222.22;5057942;28;890;-57
2021/01/22 07:23:45;;;;;;;;;;;;;;;20.14;32.56;101222.34;5058627;28;1068;-58
2021/01/22 07:26:11;;;;;;;;;;;;;;;20.19;32.58;101213.22;5056314;28;823;-58
2021/01/22 07:28:36;;;;;;;;;;;;;;;19.53;33.75;101225.41;5055613;28;1905;-50
2021/01/22 07:31:02;;;;;;;;;;;;;;;19.14;34.77;101225.00;5037770;28;1397;-52
2021/01/22 07:33:30;;;;;;;;;;;;;;;20.01;33.14;101228.50;5055947;28;832;-53
2021/01/22 07:36:22;;;;;;;;;;;;;;;20.50;32.04;101230.34;5055604;28;768;-51
2021/01/22 07:38:49;;;;;;;;;;;;;;;20.10;32.74;101226.78;5054405;28;1576;-48
2021/01/22 07:41:14;;;;;;;;;;;;;;;19.88;33.24;101223.63;5055925;28;772;-57
2021/01/22 07:43:40;;;;;;;;;;;;;;;19.53;33.98;101223.50;5041595;28;1258;-56
2021/01/22 07:46:06;;;;;;;;;;;;;;;20.54;32.08;101224.22;5059636;28;812;-54
2021/01/22 07:48:31;;;;;;;;;;;;;;;20.29;32.68;101220.59;5041792;28;1973;-47
2021/01/22 07:50:57;;;;;;;;;;;;;;;20.03;32.88;101223.50;5059298;28;784;-51
2021/01/22 07:53:22;;;;;;;;;;;;;;;19.76;33.53;101218.41;5059318;28;1002;-56
2021/01/22 07:55:54;;;;;;;;;;;;;;;19.35;34.63;101222.19;5041839;28;764;-56
2021/01/22 07:58:20;;;;;;;;;;;;;;;20.49;32.32;101225.13;5064758;28;875;-56
2021/01/22 08:00:51;;;;;;;;;;;;;;;20.30;32.48;101219.44;5060827;28;863;-43
2021/01/22 08:03:42;;;;;;;;;;;;;;;20.09;32.81;101225.16;5063754;28;1116;-47
2021/01/22 08:06:07;;;;;;;;;;;;;;;19.63;33.67;101214.34;5078850;28;796;-57
2021/01/22 08:08:33;;;;;;;;;;;;;;;19.38;34.32;101218.06;5063647;28;1910;-52
2021/01/22 08:10:58;;;;;;;;;;;;;;;20.45;32.29;101215.75;5059079;28;756;-61
2021/01/22 08:13:24;;;;;;;;;;;;;;;20.24;32.69;101209.56;5058729;28;749;-60
2021/01/22 08:16:02;;;;;;;;;;;;;;;20.16;32.75;101208.25;5059087;28;875;-46
2021/01/22 08:18:27;;;;;;;;;;;;;;;19.63;33.64;101214.34;5071578;28;1163;-46
2021/01/22 08:20:53;;;;;;;;;;;;;;;19.42;34.41;101210.84;5061058;28;815;-60
2021/01/22 08:23:18;;;;;;;;;;;;;;;20.46;32.27;101212.69;5047270;28;951;-62
2021/01/22 08:25:43;;;;;;;;;;;;;;;20.22;32.53;101217.34;5058749;28;764;-52
2021/01/22 08:28:10;;;;;;;;;;;;;;;20.17;33.03;101210.75;5046703;28;1914;-62
2021/01/22 08:30:36;;;;;;;;;;;;;;;19.66;33.76;101208.25;5061165;28;764;-59
2021/01/22 08:33:01;;;;;;;;;;;;;;;19.34;34.63;101209.50;5060345;28;816;-63
2021/01/22 08:35:27;;;;;;;;;;;;;;;20.40;32.50;101210.25;5078492;28;748;-62
2021/01/22 08:37:52;;;;;;;;;;;;;;;20.37;32.43;101203.41;5050996;28;958;-62
2021/01/22 08:40:18;;;;;;;;;;;;;;;20.20;32.78;101202.97;5040910;28;874;-49
2021/01/22 08:42:59;;;;;;;;;;;;;;;19.88;33.30;101204.28;5058577;28;847;-61
2021/01/22 08:45:25;;;;;;;;;;;;;;;19.54;33.94;101197.56;5058821;28;783;-55
2021/01/22 08:47:50;;;;;;;;;;;;;;;20.51;32.32;101193.31;5058352;28;2047;-47
2021/01/22 08:50:16;;;;;;;;;;;;;;;20.47;32.27;101192.25;5058466;28;808;-53
2021/01/22 08:52:42;;;;;;;;;;;;;;;20.14;33.09;101191.97;5057860;28;963;-62
2021/01/22 08:55:18;;;;;;;;;;;;;;;19.82;33.36;101193.31;5057659;28;913;-65
2021/01/22 08:57:58;;;;;;;;;;;;;;;19.32;34.42;101189.66;5058100;28;582;-62
2021/01/22 09:00:29;;;;;;;;;;;;;;;20.42;32.58;101183.19;5058068;28;874;-45
2021/01/22 09:03:00;;;;;;;;;;;;;;;20.22;32.76;101181.44;5058183;28;1159;-62
2021/01/22 09:05:26;;;;;;;;;;;;;;;20.00;33.28;101177.97;5058286;28;768;-53
2021/01/22 09:08:12;;;;;;;;;;;;;;;19.44;34.07;101181.88;5039983;28;1902;-56
2021/01/22 09:10:46;;;;;;;;;;;;;;;19.65;33.79;101179.84;5058398;28;785;-62
2021/01/22 09:13:11;;;;;;;;;;;;;;;20.64;32.20;101166.94;5039825;28;895;-60
2021/01/22 09:15:37;;;;;;;;;;;;;;;20.10;33.10;101159.72;5040440;28;816;-62
2021/01/22 09:18:02;;;;;;;;;;;;;;;20.14;32.82;101166.31;5067375;28;1187;-62
2021/01/22 09:20:28;;;;;;;;;;;;;;;19.38;34.13;101166.47;5059790;28;1330;-64
2021/01/22 09:22:54;;;;;;;;;;;;;;;19.70;33.66;101164.34;5068165;28;950;-60
2021/01/22 09:25:20;;;;;;;;;;;;;;;20.65;32.15;101162.25;5040182;28;753;-59
2021/01/22 09:27:46;;;;;;;;;;;;;;;20.33;32.48;101163.66;5057380;28;1969;-64
2021/01/22 09:30:34;;;;;;;;;;;;;;;20.10;32.84;101149.47;5057530;28;739;-62
2021/01/22 09:33:13;;;;;;;;;;;;;;;19.27;34.54;101154.66;5057803;28;795;-60
2021/01/22 09:35:38;;;;;;;;;;;;;;;19.75;33.75;101140.31;5057203;28;832;-59
2021/01/22 09:38:04;;;;;;;;;;;;;;;20.66;32.29;101139.03;5057406;28;998;-62
2021/01/22 09:40:29;;;;;;;;;;;;;;;20.14;33.13;101131.22;5057474;28;780;-62
2021/01/22 09:42:55;;;;;;;;;;;;;;;19.97;33.45;101128.88;5057132;28;764;-61
2021/01/22 09:45:20;;;;;;;;;;;;;;;19.34;34.44;101126.78;5057700;28;831;-62
2021/01/22 09:47:46;;;;;;;;;;;;;;;20.01;33.26;101118.09;5057599;28;1914;-61
2021/01/22 09:50:12;;;;;;;;;;;;;;;20.70;32.06;101119.97;5057584;28;744;-60
2021/01/22 09:52:38;;;;;;;;;;;;;;;20.24;32.88;101121.22;5056942;28;1006;-65
2021/01/22 09:55:13;;;;;;;;;;;;;;;20.08;32.99;101121.34;5057333;28;795;-70
2021/01/22 09:57:39;;;;;;;;;;;;;;;19.33;34.58;101111.34;5039093;28;761;-55
2021/01/22 10:00:05;;;;;;;;;;;;;;;19.96;33.42;101109.84;5039581;28;817;-60
2021/01/22 10:02:31;;;;;;;;;;;;;;;20.68;31.93;101106.44;5056987;28;1104;-60
2021/01/22 10:04:57;;;;;;;;;;;;;;;20.08;33.23;101104.78;5056507;28;883;-51
2021/01/22 10:07:22;;;;;;;;;;;;;;;20.03;33.00;101104.00;5056686;28;1906;-59
2021/01/22 10:09:48;;;;;;;;;;;;;;;19.06;35.11;101097.97;5056928;28;816;-46
2021/01/22 10:12:13;;;;;;;;;;;;;;;20.01;33.44;101101.53;5056472;28;828;-62
2021/01/22 10:14:39;;;;;;;;;;;;;;;20.70;32.05;101095.09;5057193;28;832;-45
2021/01/22 10:17:05;;;;;;;;;;;;;;;20.13;33.11;101085.41;5058072;28;1210;-56
2021/01/22 10:19:30;;;;;;;;;;;;;;;19.96;33.58;101087.78;5076618;28;816;-57
2021/01/22 10:21:55;;;;;;;;;;;;;;;19.21;34.66;101094.31;5074404;28;1009;-51
2021/01/22 10:24:21;;;;;;;;;;;;;;;20.16;33.01;101076.56;5056736;28;780;-62
2021/01/22 10:26:47;;;;;;;;;;;;;;;20.79;31.76;101082.25;5056520;28;827;-57
2021/01/22 10:29:12;;;;;;;;;;;;;;;20.14;32.82;101084.28;5056497;28;1914;-56
2021/01/22 10:31:38;;;;;;;;;;;;;;;20.11;33.01;101079.34;5056574;28;796;-59
2021/01/22 10:34:03;;;;;;;;;;;;;;;19.27;34.38;101082.16;5056356;28;756;-59
2021/01/22 10:36:29;;;;;;;;;;;;;;;19.93;33.47;101072.59;5056486;28;744;-46
2021/01/22 10:38:55;;;;;;;;;;;;;;;20.80;31.87;101067.31;5056479;28;947;-46
2021/01/22 10:41:20;;;;;;;;;;;;;;;20.08;33.14;101060.63;5056289;28;772;-57
2021/01/22 10:43:46;;;;;;;;;;;;;;;20.04;33.41;101056.78;5056309;28;787;-46
2021/01/22 10:46:11;;;;;;;;;;;;;;;19.19;34.74;101055.19;5056494;28;954;-46
2021/01/22 10:48:37;;;;;;;;;;;;;;;19.92;33.83;101059.94;5055779;28;1905;-45
2021/01/22 10:51:02;;;;;;;;;;;;;;;20.79;31.90;101054.63;5056325;28;843;-56
2021/01/22 10:53:28;;;;;;;;;;;;;;;20.20;32.88;101048.34;5055978;28;1168;-53
2021/01/22 10:55:53;;;;;;;;;;;;;;;20.13;33.09;101043.16;5056041;28;756;-51
2021/01/22 10:58:19;;;;;;;;;;;;;;;19.30;34.77;101046.56;5056273;28;796;-49
2021/01/22 11:00:59;;;;;;;;;;;;;;;19.59;34.30;101033.97;5056190;28;807;-60
2021/01/22 11:03:28;;;;;;;;;;;;;;;20.64;32.20;101036.28;5055716;28;1182;-59
2021/01/22 11:05:54;;;;;;;;;;;;;;;20.20;33.16;101021.56;5056156;28;764;-61
2021/01/22 11:11:18;;;;;;;;;;;;;;;19.35;34.70;101011.78;5055636;28;816;-63
2021/01/22 11:13:44;;;;;;;;;;;;;;;20.10;33.17;101011.44;5056013;28;863;-63
2021/01/22 11:16:10;;;;;;;;;;;;;;;20.79;31.90;101005.72;5057301;28;788;-61
2021/01/22 11:18:35;;;;;;;;;;;;;;;20.26;33.09;101001.06;5075748;28;1187;-62
2021/01/22 11:21:00;;;;;;;;;;;;;;;20.03;33.53;101008.22;5082809;28;748;-62
2021/01/22 11:23:26;;;;;;;;;;;;;;;19.10;35.10;101008.94;5066281;28;883;-59
2021/01/22 11:25:51;;;;;;;;;;;;;;;19.93;33.74;101000.84;5044434;28;728;-62
2021/01/22 11:28:17;;;;;;;;;;;;;;;20.75;32.03;100993.59;5062560;28;1905;-48
2021/01/22 11:31:11;;;;;;;;;;;;;;;20.12;33.29;100992.66;5028513;28;1202;-59
2021/01/22 11:33:36;;;;;;;;;;;;;;;20.09;33.27;100997.94;5062240;28;764;-61
2021/01/22 11:36:01;;;;;;;;;;;;;;;19.07;35.44;100987.44;5062663;28;788;-61
2021/01/22 11:38:27;;;;;;;;;;;;;;;20.18;33.40;100994.25;5044412;28;979;-61
2021/01/22 11:40:52;;;;;;;;;;;;;;;20.64;32.39;100986.53;5062537;28;800;-61
2021/01/22 11:43:18;;;;;;;;;;;;;;;20.11;33.17;100976.41;5062675;28;812;-60
2021/01/22 11:45:43;;;;;;;;;;;;;;;19.73;34.22;100977.00;5062244;28;848;-59
2021/01/22 11:48:09;;;;;;;;;;;;;;;19.39;34.66;100974.25;5062127;28;1910;-58
2021/01/22 11:50:34;;;;;;;;;;;;;;;20.35;32.96;100981.91;5062232;28;1064;-59
2021/01/22 11:53:00;;;;;;;;;;;;;;;20.45;32.51;100973.50;5062139;28;955;-52
2021/01/22 11:55:25;;;;;;;;;;;;;;;20.14;33.26;100973.03;5062139;28;732;-58
2021/01/22 11:57:51;;;;;;;;;;;;;;;19.86;33.99;100955.41;5062188;28;732;-59
2021/01/22 12:00:16;;;;;;;;;;;;;;;19.20;35.07;100960.34;5062166;28;764;-59
2021/01/22 12:02:42;;;;;;;;;;;;;;;20.32;33.26;100954.88;5043654;28;1270;-61
2021/01/22 12:05:08;;;;;;;;;;;;;;;20.45;32.80;100956.91;5081474;28;848;-61
2021/01/22 12:07:33;;;;;;;;;;;;;;;20.18;33.32;100950.06;5056294;28;1977;-62
2021/01/22 12:09:58;;;;;;;;;;;;;;;19.70;34.28;100946.41;5044301;28;827;-49
2021/01/22 12:12:26;;;;;;;;;;;;;;;19.28;35.14;100945.97;5062117;28;808;-62
2021/01/22 12:14:51;;;;;;;;;;;;;;;20.37;33.15;100946.56;5062121;28;796;-59
2021/01/22 12:17:17;;;;;;;;;;;;;;;20.29;33.14;100942.50;5064569;28;1151;-60
2021/01/22 12:19:42;;;;;;;;;;;;;;;20.07;33.74;100934.72;5082278;28;792;-58
2021/01/22 12:22:07;;;;;;;;;;;;;;;19.53;34.53;100930.28;5078216;28;962;-47
2021/01/22 12:24:33;;;;;;;;;;;;;;;19.35;34.93;100935.44;5044495;28;873;-64
2021/01/22 12:26:58;;;;;;;;;;;;;;;20.40;32.95;100932.16;5044202;28;1120;-64
2021/01/22 12:29:24;;;;;;;;;;;;;;;20.51;32.86;100930.91;5075239;28;1905;-62
2021/01/22 12:31:50;;;;;;;;;;;;;;;20.18;33.50;100927.16;5078814;28;783;-59
2021/01/22 12:34:15;;;;;;;;;;;;;;;19.78;33.99;100931.97;5078320;28;959;-54
2021/01/22 12:36:41;;;;;;;;;;;;;;;19.53;34.93;100935.81;5078766;28;751;-61
2021/01/22 12:39:06;;;;;;;;;;;;;;;20.47;33.14;100938.13;5058495;28;950;-59
2021/01/22 12:41:34;;;;;;;;;;;;;;;21.09;31.96;100931.75;5040150;28;805;-61
2021/01/22 12:43:59;;;;;;;;;;;;;;;21.10;31.90;100938.13;5058600;28;782;-60
2021/01/22 12:46:25;;;;;;;;;;;;;;;20.45;33.08;100929.28;5058683;28;783;-60
2021/01/22 12:48:50;;;;;;;;;;;;;;;19.97;34.01;100929.34;5057952;28;1913;-61
2021/01/22 12:51:16;;;;;;;;;;;;;;;19.13;35.51;100928.41;5058627;28;764;-55
2021/01/22 12:53:41;;;;;;;;;;;;;;;20.02;34.06;100925.69;5058218;28;955;-51
2021/01/22 12:56:07;;;;;;;;;;;;;;;20.46;32.98;100925.44;5058046;28;800;-60
2021/01/22 12:58:32;;;;;;;;;;;;;;;20.15;33.70;100919.47;5058185;28;744;-59
2021/01/22 13:01:19;;;;;;;;;;;;;;;19.82;34.16;100920.13;5058552;28;1022;-47
2021/01/22 13:03:52;;;;;;;;;;;;;;;19.36;35.34;100914.19;5057739;28;1452;-61